Time;durP1;ratioP1;P1;durP2;ratioP2;P2;SDS_P1;SDS_P2;PMS_P1;PMS_P2;Temp;Humidity;BMP_temperature;BMP_pressure;BME280_temperature;BME280_humidity;BME280_pressure;Samples;Min_cycle;Max_cycle;Signal;HPM_P1;HPM_P2
2023/11/22 00:01:28;;;;;;;4.57;3.45;;;;;;;7.22;100.00;98443.03;4187477;28;20216;-88
2023/11/22 00:03:31;;;;;;;5.57;3.63;;;;;;;7.16;100.00;98444.19;4159050;28;20704;-87
2023/11/22 00:05:34;;;;;;;7.13;3.70;;;;;;;6.93;100.00;98440.19;4157768;28;20210;-87
2023/11/22 00:07:39;;;;;;;8.18;3.88;;;;;;;6.80;100.00;98442.53;4188929;28;20729;-89
2023/11/22 00:09:43;;;;;;;6.65;4.40;;;;;;;6.84;100.00;98445.81;4186995;28;20197;-88
2023/11/22 00:11:46;;;;;;;6.35;4.13;;;;;;;6.78;100.00;98440.91;4172930;28;20548;-87
2023/11/22 00:13:55;;;;;;;7.13;4.68;;;;;;;6.85;100.00;98442.31;4163826;28;20223;-87
2023/11/22 00:16:00;;;;;;;6.05;4.47;;;;;;;6.69;100.00;98455.16;4159891;28;20663;-87
2023/11/22 00:18:03;;;;;;;6.43;4.47;;;;;;;6.68;100.00;98457.81;4191534;28;20227;-87
2023/11/22 00:20:09;;;;;;;6.50;4.97;;;;;;;6.71;100.00;98452.50;4165660;28;20198;-87
2023/11/22 00:22:13;;;;;;;6.32;4.40;;;;;;;6.73;100.00;98450.66;4173277;28;20207;-87
2023/11/22 00:24:19;;;;;;;5.22;4.13;;;;;;;6.74;100.00;98449.78;4174612;28;20206;-87
2023/11/22 00:26:22;;;;;;;5.43;3.78;;;;;;;6.82;100.00;98455.41;4176626;28;20217;-86
2023/11/22 00:28:31;;;;;;;6.82;4.50;;;;;;;6.88;100.00;98460.31;4175400;28;20232;-87
2023/11/22 00:30:35;;;;;;;6.32;4.82;;;;;;;6.94;100.00;98463.44;4173175;28;20302;-87
2023/11/22 00:32:40;;;;;;;6.60;4.57;;;;;;;7.06;100.00;98466.28;4177242;28;20256;-87
2023/11/22 00:34:44;;;;;;;5.55;4.32;;;;;;;7.09;100.00;98463.53;4175414;28;20229;-87
2023/11/22 00:36:47;;;;;;;6.63;4.43;;;;;;;7.11;99.86;98464.31;4162564;28;20255;-88
2023/11/22 00:38:50;;;;;;;7.57;5.05;;;;;;;7.17;99.69;98461.44;4173904;28;20201;-88
2023/11/22 00:40:55;;;;;;;5.95;4.00;;;;;;;7.27;100.00;98470.41;4176155;28;20231;-88
2023/11/22 00:42:58;;;;;;;8.15;4.25;;;;;;;7.38;100.00;98475.06;4159629;28;20816;-88
2023/11/22 00:45:01;;;;;;;7.15;4.53;;;;;;;7.49;100.00;98484.03;4159396;28;20210;-88
2023/11/22 00:47:06;;;;;;;6.45;4.50;;;;;;;7.48;99.74;98484.91;4159960;28;20204;-88
2023/11/22 00:49:09;;;;;;;6.18;4.10;;;;;;;7.51;99.42;98482.19;4173321;28;20289;-88
2023/11/22 00:51:12;;;;;;;6.30;4.70;;;;;;;7.52;99.32;98483.88;4170738;28;20263;-88
2023/11/22 00:53:18;;;;;;;6.50;4.50;;;;;;;7.43;98.20;98484.31;4159146;28;20201;-88
2023/11/22 00:55:21;;;;;;;11.75;6.13;;;;;;;7.33;99.25;98490.03;4159811;28;20580;-88
2023/11/22 00:57:26;;;;;;;12.80;6.10;;;;;;;7.24;99.58;98483.53;4161217;28;20226;-88
2023/11/22 00:59:30;;;;;;;8.57;4.90;;;;;;;7.15;100.00;98493.53;4172807;28;20219;-88
2023/11/22 01:01:37;;;;;;;8.68;4.85;;;;;;;7.12;99.56;98496.25;4157713;28;20210;-88
2023/11/22 01:03:40;;;;;;;6.70;4.90;;;;;;;7.08;100.00;98497.31;4155595;28;20667;-87
2023/11/22 01:05:46;;;;;;;6.55;3.92;;;;;;;7.07;100.00;98498.25;4179083;28;20210;-87
2023/11/22 01:07:49;;;;;;;16.45;7.57;;;;;;;7.06;99.66;98505.16;4177071;28;20245;-87
2023/11/22 01:09:53;;;;;;;4.95;3.70;;;;;;;7.11;98.33;98512.72;4159073;28;20674;-87
2023/11/22 01:11:55;;;;;;;5.25;3.60;;;;;;;7.10;97.94;98506.72;4185898;28;20292;-87
2023/11/22 01:14:00;;;;;;;5.72;4.43;;;;;;;7.01;98.07;98510.66;4174030;28;20293;-87
2023/11/22 01:16:04;;;;;;;4.60;3.42;;;;;;;7.04;99.28;98506.16;4163230;28;20257;-87
2023/11/22 01:18:07;;;;;;;5.10;3.90;;;;;;;6.98;97.85;98508.22;4182981;28;20760;-87
2023/11/22 01:20:11;;;;;;;5.68;4.18;;;;;;;7.01;97.72;98510.66;4174155;28;20716;-88
2023/11/22 01:22:15;;;;;;;4.97;3.95;;;;;;;6.99;96.74;98517.66;4179890;28;20248;-87
2023/11/22 01:24:19;;;;;;;5.82;4.00;;;;;;;7.05;96.75;98519.06;4189909;28;20747;-87
2023/11/22 01:26:23;;;;;;;6.13;3.75;;;;;;;7.10;96.89;98521.44;4177071;28;20227;-87
2023/11/22 01:28:27;;;;;;;6.60;3.75;;;;;;;7.17;96.56;98531.44;4160721;28;20657;-88
2023/11/22 01:30:32;;;;;;;4.68;3.67;;;;;;;7.11;94.53;98534.31;4161837;28;20640;-87
2023/11/22 01:32:36;;;;;;;5.32;4.20;;;;;;;6.97;92.78;98519.50;4179607;28;20695;-87
2023/11/22 01:34:40;;;;;;;5.82;3.97;;;;;;;7.00;94.38;98527.97;4177175;28;20227;-87
2023/11/22 01:36:44;;;;;;;5.65;4.30;;;;;;;7.09;96.24;98530.94;4164144;28;20224;-87
2023/11/22 01:38:47;;;;;;;4.75;3.60;;;;;;;7.16;95.35;98532.34;4173696;28;20207;-87
2023/11/22 01:40:52;;;;;;;5.95;4.03;;;;;;;7.21;95.40;98538.16;4171562;28;20221;-87
2023/11/22 01:42:56;;;;;;;5.80;4.00;;;;;;;7.25;94.26;98531.91;4162516;28;20825;-87
2023/11/22 01:44:59;;;;;;;5.05;3.75;;;;;;;7.30;92.46;98540.28;4179536;28;20197;-87
2023/11/22 01:47:06;;;;;;;4.68;3.80;;;;;;;7.36;92.69;98540.00;4162545;28;20257;-87
2023/11/22 01:49:10;;;;;;;5.45;3.90;;;;;;;7.42;92.00;98538.88;4154890;28;20244;-87
2023/11/22 01:51:14;;;;;;;5.45;3.85;;;;;;;7.36;90.45;98539.19;4159853;28;20270;-87
2023/11/22 01:53:21;;;;;;;4.97;3.90;;;;;;;7.33;90.67;98544.50;4192009;28;20206;-87
2023/11/22 01:55:25;;;;;;;5.43;3.97;;;;;;;7.24;91.06;98550.97;4191844;28;20235;-87
2023/11/22 01:57:28;;;;;;;5.60;3.90;;;;;;;7.13;90.12;98557.59;4160624;28;20219;-87
2023/11/22 01:59:32;;;;;;;6.75;3.95;;;;;;;7.12;91.37;98551.53;4185567;28;20656;-87
2023/11/22 02:01:37;;;;;;;5.70;4.43;;;;;;;7.11;90.70;98565.44;4188214;28;20255;-87
2023/11/22 02:03:42;;;;;;;6.22;4.03;;;;;;;7.08;89.82;98557.81;4178095;28;20696;-87
2023/11/22 02:05:45;;;;;;;5.00;3.90;;;;;;;7.10;90.30;98550.78;4175866;28;20198;-87
2023/11/22 02:07:49;;;;;;;7.28;4.05;;;;;;;7.09;91.13;98564.66;4169096;28;20201;-87
2023/11/22 02:09:52;;;;;;;4.55;3.45;;;;;;;7.12;90.25;98566.28;4160754;28;20270;-87
2023/11/22 02:11:58;;;;;;;6.18;4.25;;;;;;;7.15;91.29;98574.75;4175186;28;20801;-87
2023/11/22 02:14:04;;;;;;;4.20;3.40;;;;;;;7.16;89.84;98584.22;4177649;28;20208;-87
2023/11/22 02:16:06;;;;;;;4.32;3.47;;;;;;;7.10;89.87;98581.91;4164786;28;20242;-87
2023/11/22 02:18:10;;;;;;;4.65;3.80;;;;;;;7.08;88.74;98586.34;4171366;28;20230;-87
2023/11/22 02:20:18;;;;;;;4.43;3.35;;;;;;;7.00;87.14;98591.94;4177373;28;20701;-87
2023/11/22 02:22:21;;;;;;;5.90;4.15;;;;;;;6.98;87.89;98588.59;4170586;28;20205;-87
2023/11/22 02:24:27;;;;;;;5.53;3.78;;;;;;;7.00;88.83;98591.94;4169305;28;20211;-87
2023/11/22 02:26:31;;;;;;;5.07;3.65;;;;;;;6.95;87.95;98588.72;4188167;28;20200;-87
2023/11/22 02:28:34;;;;;;;5.00;3.90;;;;;;;6.82;87.21;98590.19;4166180;28;20201;-87
2023/11/22 02:30:39;;;;;;;4.55;3.60;;;;;;;6.75;87.08;98597.41;4158879;28;20196;-87
2023/11/22 02:32:43;;;;;;;4.93;3.50;;;;;;;6.65;87.48;98590.13;4178365;28;20207;-87
2023/11/22 02:34:48;;;;;;;6.97;3.85;;;;;;;6.68;87.73;98600.34;4161565;28;20214;-87
2023/11/22 02:36:51;;;;;;;5.63;4.18;;;;;;;6.44;86.49;98587.66;4167716;28;20214;-87
2023/11/22 02:39:06;;;;;;;5.00;4.03;;;;;;;6.46;88.31;98584.06;4174278;28;20265;-86
2023/11/22 02:41:11;;;;;;;6.05;4.13;;;;;;;6.50;88.69;98595.16;4162605;28;20305;-87
2023/11/22 02:43:14;;;;;;;4.50;3.40;;;;;;;6.52;89.11;98601.94;4156545;28;20252;-88
2023/11/22 02:45:18;;;;;;;5.47;3.70;;;;;;;6.52;88.87;98594.16;4174557;28;20207;-87
2023/11/22 02:47:23;;;;;;;3.85;2.95;;;;;;;6.52;89.76;98588.97;4176923;28;20199;-87
2023/11/22 02:49:29;;;;;;;5.45;3.88;;;;;;;6.55;88.49;98586.25;4174188;28;20208;-87
2023/11/22 02:51:32;;;;;;;5.53;3.70;;;;;;;6.57;88.08;98592.22;4175803;28;20293;-87
2023/11/22 02:53:37;;;;;;;5.10;3.90;;;;;;;6.59;88.55;98596.41;4174553;28;20688;-87
2023/11/22 02:55:40;;;;;;;5.82;3.60;;;;;;;6.58;87.60;98592.16;4189822;28;20233;-87
2023/11/22 02:57:45;;;;;;;5.38;3.83;;;;;;;6.62;87.51;98600.63;4163685;28;20202;-87
2023/11/22 02:59:48;;;;;;;4.65;3.20;;;;;;;6.65;88.50;98597.91;4187258;28;20281;-87
2023/11/22 03:01:51;;;;;;;5.78;4.10;;;;;;;6.68;89.20;98602.94;4169374;28;20298;-87
2023/11/22 03:03:55;;;;;;;5.70;3.95;;;;;;;6.71;88.51;98606.22;4164036;28;20214;-87
2023/11/22 03:05:58;;;;;;;5.90;3.92;;;;;;;6.66;88.27;98600.41;4170796;28;20212;-87
2023/11/22 03:08:02;;;;;;;6.13;4.07;;;;;;;6.56;86.49;98601.72;4178195;28;20686;-87
2023/11/22 03:10:08;;;;;;;5.60;3.95;;;;;;;6.56;85.63;98591.34;4162849;28;20206;-87
2023/11/22 03:12:12;;;;;;;7.10;4.68;;;;;;;6.56;86.60;98606.91;4157502;28;20684;-87
2023/11/22 03:14:18;;;;;;;4.82;3.60;;;;;;;6.58;87.00;98605.09;4177400;28;20665;-87
2023/11/22 03:16:21;;;;;;;5.18;3.90;;;;;;;6.65;88.39;98616.88;4159514;28;20247;-87
2023/11/22 03:18:23;;;;;;;5.50;3.78;;;;;;;6.66;87.35;98620.28;4163542;28;20247;-86
2023/11/22 03:20:27;;;;;;;5.28;4.07;;;;;;;6.53;85.38;98634.72;4178108;28;20254;-87
2023/11/22 03:22:29;;;;;;;6.93;3.80;;;;;;;6.50;86.44;98636.59;4173581;28;20205;-87
2023/11/22 03:24:38;;;;;;;5.82;4.00;;;;;;;6.48;86.80;98644.44;4189195;28;20226;-87
2023/11/22 03:26:41;;;;;;;4.65;3.55;;;;;;;6.47;87.52;98642.75;4167742;28;20289;-87
2023/11/22 03:28:44;;;;;;;6.50;4.22;;;;;;;6.41;86.58;98643.00;4160115;28;20392;-87
2023/11/22 03:30:49;;;;;;;6.10;4.03;;;;;;;6.40;87.08;98633.53;4154191;28;20314;-87
2023/11/22 03:32:54;;;;;;;6.60;4.10;;;;;;;6.32;86.32;98653.75;4163161;28;20986;-87
2023/11/22 03:34:57;;;;;;;5.78;4.22;;;;;;;6.16;86.02;98655.31;4158806;28;20707;-86
2023/11/22 03:37:01;;;;;;;5.95;4.07;;;;;;;6.11;86.59;98654.66;4174108;28;20229;-87
2023/11/22 03:39:04;;;;;;;6.78;3.80;;;;;;;5.99;86.41;98663.84;4186775;28;20288;-87
2023/11/22 03:41:09;;;;;;;5.72;4.32;;;;;;;5.89;86.57;98665.13;4173324;28;20210;-87
2023/11/22 03:43:12;;;;;;;8.10;5.25;;;;;;;5.84;87.04;98675.66;4175051;28;20261;-87
2023/11/22 03:45:16;;;;;;;4.90;3.78;;;;;;;5.87;87.00;98679.88;4185644;28;20201;-87
2023/11/22 03:47:24;;;;;;;5.20;4.00;;;;;;;5.72;87.13;98677.88;4171866;28;20198;-87
2023/11/22 03:49:27;;;;;;;6.55;4.30;;;;;;;5.69;87.38;98685.75;4182996;28;20210;-87
2023/11/22 03:51:30;;;;;;;6.10;4.18;;;;;;;5.59;86.23;98684.41;4160951;28;20302;-87
2023/11/22 03:53:33;;;;;;;5.70;4.10;;;;;;;5.48;87.26;98678.81;4185596;28;20210;-87
2023/11/22 03:55:37;;;;;;;5.55;4.10;;;;;;;5.51;87.21;98681.28;4184219;28;20700;-87
2023/11/22 03:57:41;;;;;;;7.40;4.40;;;;;;;5.56;87.57;98692.28;4154310;28;20580;-89
2023/11/22 03:59:44;;;;;;;5.82;4.10;;;;;;;5.65;87.33;98695.38;4151464;28;20206;-89
2023/11/22 04:01:47;;;;;;;7.82;4.45;;;;;;;5.70;87.03;98687.44;4158248;28;20207;-89
2023/11/22 04:03:53;;;;;;;5.50;4.18;;;;;;;5.74;86.73;98691.59;4171326;28;20194;-89
2023/11/22 04:05:57;;;;;;;8.68;4.43;;;;;;;5.76;86.34;98685.47;4182520;28;20486;-89
2023/11/22 04:08:01;;;;;;;6.50;4.25;;;;;;;5.63;86.35;98683.41;4164047;28;20621;-89
2023/11/22 04:10:07;;;;;;;6.68;4.93;;;;;;;5.64;87.10;98685.94;4170541;28;20221;-89
2023/11/22 04:12:10;;;;;;;5.82;4.45;;;;;;;5.59;86.30;98694.75;4187829;28;20210;-89
2023/11/22 04:14:12;;;;;;;6.30;4.45;;;;;;;5.57;87.38;98706.09;4175294;28;20289;-89
2023/11/22 04:16:18;;;;;;;6.57;4.50;;;;;;;5.51;86.36;98696.81;4176194;28;20643;-89
2023/11/22 04:18:24;;;;;;;4.90;3.55;;;;;;;5.48;86.38;98703.84;4174723;28;20221;-89
2023/11/22 04:20:30;;;;;;;5.57;4.20;;;;;;;5.44;86.35;98707.44;4172827;28;20213;-89
2023/11/22 04:22:33;;;;;;;6.45;4.35;;;;;;;5.39;87.13;98711.97;4158891;28;20303;-89
2023/11/22 04:24:38;;;;;;;6.07;4.15;;;;;;;5.45;86.88;98716.91;4168833;28;20439;-88
2023/11/22 04:26:42;;;;;;;8.32;4.82;;;;;;;5.33;86.80;98701.84;4175063;28;20261;-88
2023/11/22 04:28:45;;;;;;;5.82;4.10;;;;;;;5.31;86.55;98711.44;4159422;28;20222;-88
2023/11/22 04:30:50;;;;;;;6.65;4.57;;;;;;;5.30;87.42;98717.47;4176042;28;20280;-88
2023/11/22 04:32:53;;;;;;;6.40;4.70;;;;;;;5.28;86.99;98709.78;4185465;28;20209;-89
2023/11/22 04:34:58;;;;;;;5.63;3.85;;;;;;;5.36;87.22;98718.09;4169651;28;20532;-89
2023/11/22 04:37:03;;;;;;;5.68;4.10;;;;;;;5.41;87.56;98717.91;4153140;28;20310;-89
2023/11/22 04:39:08;;;;;;;7.15;4.50;;;;;;;5.38;86.89;98728.38;4170657;28;20531;-89
2023/11/22 04:41:11;;;;;;;6.32;4.40;;;;;;;5.42;86.18;98724.78;4158559;28;20293;-87
2023/11/22 04:43:16;;;;;;;6.68;4.32;;;;;;;5.36;86.82;98723.25;4172948;28;20277;-87
2023/11/22 04:45:19;;;;;;;6.35;4.28;;;;;;;5.43;87.65;98737.66;4186862;28;20201;-87
2023/11/22 04:47:23;;;;;;;7.50;4.55;;;;;;;5.33;86.96;98738.88;4186627;28;20206;-87
2023/11/22 04:49:26;;;;;;;6.15;4.10;;;;;;;5.34;85.95;98743.16;4190131;28;20194;-87
2023/11/22 04:51:30;;;;;;;7.13;4.20;;;;;;;5.40;86.63;98750.69;4157291;28;20282;-87
2023/11/22 04:53:36;;;;;;;7.80;4.75;;;;;;;5.45;87.34;98750.53;4157098;28;20206;-88
2023/11/22 04:55:39;;;;;;;9.55;4.45;;;;;;;5.52;86.92;98746.78;4159651;28;20203;-87
2023/11/22 04:57:42;;;;;;;8.35;4.38;;;;;;;5.58;86.71;98754.31;4172438;28;20695;-87
2023/11/22 04:59:46;;;;;;;7.95;5.13;;;;;;;5.64;87.12;98767.88;4176788;28;20250;-87
2023/11/22 05:01:50;;;;;;;6.85;4.30;;;;;;;5.69;87.87;98760.78;4167774;28;20266;-87
2023/11/22 05:03:53;;;;;;;7.65;4.53;;;;;;;5.75;87.73;98768.34;4164087;28;20207;-87
2023/11/22 05:05:57;;;;;;;8.07;5.07;;;;;;;5.83;86.66;98769.75;4177035;28;20195;-87
2023/11/22 05:08:00;;;;;;;17.20;10.80;;;;;;;5.87;87.29;98778.22;4186341;28;20228;-87
2023/11/22 05:10:05;;;;;;;13.25;8.32;;;;;;;5.92;87.31;98790.06;4175779;28;20198;-87
2023/11/22 05:12:09;;;;;;;8.40;5.70;;;;;;;5.98;87.12;98786.41;4161928;28;20286;-87
2023/11/22 05:14:13;;;;;;;6.57;4.22;;;;;;;5.92;85.87;98789.22;4178108;28;20202;-88
2023/11/22 05:16:23;;;;;;;5.70;3.88;;;;;;;5.93;86.46;98788.34;4162797;28;20218;-87
2023/11/22 05:18:27;;;;;;;9.02;6.45;;;;;;;5.95;86.58;98795.13;4155833;28;20614;-87
2023/11/22 05:20:30;;;;;;;7.65;5.20;;;;;;;5.91;85.96;98793.56;4161949;28;20217;-87
2023/11/22 05:22:34;;;;;;;7.55;5.30;;;;;;;5.72;86.54;98789.97;4176583;28;20233;-89
2023/11/22 05:24:40;;;;;;;6.28;4.65;;;;;;;5.60;85.07;98797.34;4157249;28;20263;-89
2023/11/22 05:26:46;;;;;;;5.95;4.80;;;;;;;5.59;84.92;98793.06;4172869;28;20200;-89
2023/11/22 05:28:53;;;;;;;7.07;4.90;;;;;;;5.68;86.03;98798.75;4179072;28;20703;-89
2023/11/22 05:30:56;;;;;;;9.02;5.65;;;;;;;5.73;86.71;98803.75;4175240;28;20225;-89
2023/11/22 05:32:59;;;;;;;8.80;6.22;;;;;;;5.80;86.26;98803.50;4180124;28;20288;-89
2023/11/22 05:35:06;;;;;;;7.53;6.05;;;;;;;5.86;87.34;98803.22;4161026;28;20302;-89
2023/11/22 05:37:09;;;;;;;8.15;5.28;;;;;;;5.87;86.98;98796.34;4159878;28;20251;-89
2023/11/22 05:39:13;;;;;;;6.88;4.90;;;;;;;5.95;86.77;98802.06;4172728;28;20199;-89
2023/11/22 05:41:16;;;;;;;9.15;5.97;;;;;;;5.98;86.87;98807.94;4174983;28;20692;-89
2023/11/22 05:43:25;;;;;;;7.78;5.45;;;;;;;6.01;86.62;98807.00;4177027;28;20192;-91
2023/11/22 05:45:30;;;;;;;8.85;4.55;;;;;;;5.99;85.78;98808.81;4153294;28;20242;-88
2023/11/22 05:47:33;;;;;;;10.85;5.28;;;;;;;6.01;87.22;98805.22;4172053;28;20207;-88
2023/11/22 05:49:37;;;;;;;6.28;4.53;;;;;;;6.06;86.50;98810.22;4172549;28;20198;-88
2023/11/22 05:51:42;;;;;;;9.68;4.72;;;;;;;6.08;86.33;98818.81;4169948;28;20206;-88
2023/11/22 05:53:45;;;;;;;7.13;4.90;;;;;;;5.99;84.41;98813.97;4167523;28;20211;-88
2023/11/22 05:55:49;;;;;;;6.82;4.38;;;;;;;6.02;85.41;98817.28;4169448;28;20206;-89
2023/11/22 05:57:52;;;;;;;5.82;4.47;;;;;;;6.07;85.89;98819.69;4173704;28;20592;-88
2023/11/22 05:59:56;;;;;;;6.65;5.22;;;;;;;6.06;85.81;98825.75;4169746;28;20248;-87
2023/11/22 06:02:00;;;;;;;8.52;5.40;;;;;;;6.07;86.02;98827.47;4176324;28;20649;-88
2023/11/22 06:04:03;;;;;;;8.15;4.80;;;;;;;6.08;86.73;98839.50;4184368;28;20321;-87
2023/11/22 06:06:07;;;;;;;6.32;4.57;;;;;;;6.13;86.74;98849.63;4184126;28;20192;-87
2023/11/22 06:08:11;;;;;;;12.30;8.57;;;;;;;6.19;86.91;98848.53;4171843;28;20719;-87
2023/11/22 06:10:15;;;;;;;9.38;4.75;;;;;;;6.17;85.92;98856.34;4155729;28;20203;-88
2023/11/22 06:12:20;;;;;;;7.65;4.60;;;;;;;6.08;85.01;98855.06;4172557;28;20285;-88
2023/11/22 06:14:24;;;;;;;6.65;4.78;;;;;;;6.01;85.28;98861.34;4174757;28;20199;-88
2023/11/22 06:16:29;;;;;;;5.95;4.65;;;;;;;6.02;85.94;98850.09;4190681;28;20256;-88
2023/11/22 06:18:33;;;;;;;5.40;4.18;;;;;;;6.08;85.41;98855.06;4172841;28;20226;-87
2023/11/22 06:20:36;;;;;;;8.25;5.50;;;;;;;6.01;85.62;98864.78;4185426;28;20206;-88
2023/11/22 06:22:42;;;;;;;6.20;4.53;;;;;;;5.94;85.32;98870.22;4174770;28;20206;-87
2023/11/22 06:24:47;;;;;;;7.15;4.85;;;;;;;5.89;84.46;98874.75;4167799;28;20203;-87
2023/11/22 06:26:51;;;;;;;5.95;4.15;;;;;;;5.85;85.12;98870.56;4171639;28;20688;-89
2023/11/22 06:28:55;;;;;;;6.65;4.80;;;;;;;5.83;85.59;98870.66;4157038;28;20203;-88
2023/11/22 06:30:59;;;;;;;6.05;4.70;;;;;;;5.86;86.28;98880.03;4157796;28;20900;-88
2023/11/22 06:33:04;;;;;;;8.13;5.20;;;;;;;5.85;86.38;98878.34;4181100;28;20664;-88
2023/11/22 06:35:09;;;;;;;6.55;5.15;;;;;;;5.79;85.72;98881.19;4162811;28;20274;-88
2023/11/22 06:37:13;;;;;;;8.07;5.57;;;;;;;5.76;86.39;98879.53;4178003;28;20229;-88
2023/11/22 06:39:17;;;;;;;7.38;5.22;;;;;;;5.70;86.73;98877.16;4162101;28;20286;-88
2023/11/22 06:41:21;;;;;;;7.50;4.95;;;;;;;5.72;87.00;98871.91;4160775;28;20203;-88
2023/11/22 06:43:24;;;;;;;7.40;5.28;;;;;;;5.70;86.78;98877.16;4186847;28;20230;-88
2023/11/22 06:45:28;;;;;;;7.57;5.00;;;;;;;5.71;87.32;98883.16;4188330;28;20209;-89
2023/11/22 06:47:30;;;;;;;8.50;5.63;;;;;;;5.71;87.22;98889.19;4161239;28;20214;-88
2023/11/22 06:49:34;;;;;;;14.15;9.07;;;;;;;5.79;87.92;98894.13;4158239;28;20202;-88
2023/11/22 06:51:40;;;;;;;13.48;8.65;;;;;;;5.87;87.91;98897.25;4188609;28;20218;-88
2023/11/22 06:53:47;;;;;;;8.50;5.47;;;;;;;5.92;87.72;98901.34;4169499;28;20199;-88
2023/11/22 06:55:50;;;;;;;7.40;4.80;;;;;;;5.93;87.77;98897.03;4191172;28;20260;-88
2023/11/22 06:57:58;;;;;;;6.38;4.40;;;;;;;5.90;88.39;98904.91;4179370;28;20214;-88
2023/11/22 07:00:04;;;;;;;5.80;4.75;;;;;;;5.89;88.27;98895.44;4190321;28;20333;-89
2023/11/22 07:02:07;;;;;;;8.10;5.40;;;;;;;5.94;89.30;98893.53;4176473;28;20260;-88
2023/11/22 07:04:11;;;;;;;6.75;4.68;;;;;;;5.91;87.73;98906.59;4184024;28;20207;-88
2023/11/22 07:06:16;;;;;;;5.57;4.22;;;;;;;5.80;86.83;98896.66;4173946;28;20221;-88
2023/11/22 07:08:19;;;;;;;8.05;4.45;;;;;;;5.75;87.56;98913.25;4172607;28;20298;-88
2023/11/22 07:10:23;;;;;;;4.25;3.70;;;;;;;5.66;86.90;98908.34;4171354;28;20212;-88
2023/11/22 07:12:27;;;;;;;7.30;4.60;;;;;;;5.54;87.43;98903.63;4168221;28;20249;-88
2023/11/22 07:14:31;;;;;;;5.80;4.60;;;;;;;5.46;87.03;98902.19;4186312;28;20578;-88
2023/11/22 07:16:34;;;;;;;5.57;4.65;;;;;;;5.44;87.61;98907.44;4157197;28;20631;-88
2023/11/22 07:18:38;;;;;;;8.13;4.60;;;;;;;5.36;87.26;98913.78;4187583;28;20214;-88
2023/11/22 07:20:40;;;;;;;6.28;4.03;;;;;;;5.27;86.20;98920.09;4160819;28;20209;-88
2023/11/22 07:22:54;;;;;;;5.40;3.80;;;;;;;5.14;86.79;98921.41;4173158;28;20260;-89
2023/11/22 07:25:01;;;;;;;9.50;4.40;;;;;;;5.12;86.24;98921.53;4188112;28;20230;-89
2023/11/22 07:27:11;;;;;;;6.57;3.80;;;;;;;4.98;87.87;98931.47;4182377;28;20207;-89
2023/11/22 07:29:15;;;;;;;6.85;3.92;;;;;;;4.85;86.73;98935.34;4185444;28;20232;-91
2023/11/22 07:31:19;;;;;;;5.45;3.90;;;;;;;4.79;86.28;98948.47;4181495;28;20229;-91
2023/11/22 07:33:26;;;;;;;4.85;3.20;;;;;;;4.75;87.10;98950.31;4173979;28;20210;-92
2023/11/22 07:35:29;;;;;;;8.35;4.10;;;;;;;4.72;86.81;98953.00;4183627;28;20218;-92
2023/11/22 07:37:31;;;;;;;5.25;3.90;;;;;;;4.61;85.79;98963.69;4178070;28;20244;-91
2023/11/22 07:39:38;;;;;;;6.35;3.95;;;;;;;4.47;87.34;98955.53;4179378;28;20206;-90
2023/11/22 07:41:41;;;;;;;7.53;4.22;;;;;;;4.28;87.21;98959.53;4175956;28;20213;-91
2023/11/22 07:43:45;;;;;;;6.35;3.83;;;;;;;4.28;87.88;98965.56;4180723;28;20194;-91
2023/11/22 07:45:50;;;;;;;6.30;3.75;;;;;;;4.18;89.04;98968.47;4175927;28;20232;-90
2023/11/22 07:47:55;;;;;;;6.57;4.22;;;;;;;4.21;87.69;98971.81;4173572;28;20206;-92
2023/11/22 07:50:01;;;;;;;7.10;4.45;;;;;;;4.19;88.89;98962.41;4159984;28;20215;-90
2023/11/22 07:52:05;;;;;;;6.72;3.83;;;;;;;3.95;87.89;98957.94;4185577;28;20293;-90
2023/11/22 07:54:09;;;;;;;7.43;4.80;;;;;;;3.94;87.72;98965.72;4175152;28;20252;-90
2023/11/22 07:56:17;;;;;;;6.72;4.20;;;;;;;3.99;88.69;98969.88;4175246;28;20198;-90
2023/11/22 07:58:22;;;;;;;7.03;4.35;;;;;;;4.03;88.30;98970.63;4170152;28;20793;-90
2023/11/22 08:00:25;;;;;;;6.53;4.47;;;;;;;3.92;87.47;98963.19;4189556;28;20255;-90
2023/11/22 08:02:28;;;;;;;10.68;4.75;;;;;;;3.86;87.95;98976.28;4170377;28;20248;-90
2023/11/22 08:04:32;;;;;;;7.63;4.43;;;;;;;3.80;88.46;98968.72;4175421;28;20582;-90
2023/11/22 08:06:35;;;;;;;8.38;5.18;;;;;;;3.79;88.81;98969.59;4160142;28;20222;-90
2023/11/22 08:08:39;;;;;;;10.18;5.20;;;;;;;3.83;88.17;98973.78;4185709;28;20206;-90
2023/11/22 08:10:43;;;;;;;6.72;4.57;;;;;;;3.85;88.06;98977.16;4179113;28;20206;-89
2023/11/22 08:12:49;;;;;;;8.60;5.20;;;;;;;3.89;88.50;98980.50;4176017;28;20734;-89
2023/11/22 08:14:55;;;;;;;7.70;4.65;;;;;;;3.92;88.64;98983.00;4157683;28;20194;-90
2023/11/22 08:16:59;;;;;;;7.55;4.40;;;;;;;3.95;88.94;98986.31;4166861;28;20293;-90
2023/11/22 08:19:05;;;;;;;9.45;4.57;;;;;;;3.92;88.30;98985.56;4173186;28;20217;-90
2023/11/22 08:21:08;;;;;;;8.05;4.72;;;;;;;4.03;88.97;98986.09;4173032;28;20203;-91
2023/11/22 08:23:13;;;;;;;8.13;4.90;;;;;;;4.18;88.94;98993.41;4168034;28;20199;-90
2023/11/22 08:25:16;;;;;;;8.45;5.47;;;;;;;4.32;89.88;99000.72;4175899;28;20202;-91
2023/11/22 08:27:19;;;;;;;7.43;4.38;;;;;;;4.45;88.62;99003.78;4186338;28;20206;-91
2023/11/22 08:29:25;;;;;;;5.78;4.55;;;;;;;4.57;88.24;99008.56;4154596;28;20674;-90
2023/11/22 08:31:28;;;;;;;7.28;4.70;;;;;;;4.66;88.02;99006.59;4174415;28;20284;-91
2023/11/22 08:33:32;;;;;;;6.07;4.40;;;;;;;4.74;87.41;99005.44;4184194;28;20237;-91
2023/11/22 08:35:36;;;;;;;8.13;4.15;;;;;;;4.84;88.24;99008.56;4170331;28;20206;-90
2023/11/22 08:37:41;;;;;;;7.88;4.68;;;;;;;4.96;88.75;99001.31;4168631;28;20317;-90
2023/11/22 08:39:44;;;;;;;24.85;12.35;;;;;;;5.07;86.41;99006.13;4160881;28;20234;-91
2023/11/22 08:41:49;;;;;;;7.45;5.10;;;;;;;5.06;85.81;99013.03;4159187;28;20202;-90
2023/11/22 08:43:52;;;;;;;9.70;6.00;;;;;;;5.07;84.55;99013.88;4174814;28;20194;-90
2023/11/22 08:45:56;;;;;;;6.90;4.50;;;;;;;5.05;85.32;99000.16;4177160;28;20206;-89
2023/11/22 08:48:15;;;;;;;8.98;5.57;;;;;;;5.14;84.58;99005.84;4182361;28;20563;-91
2023/11/22 08:50:19;;;;;;;8.10;5.85;;;;;;;5.20;84.68;99010.84;4187249;28;20303;-90
2023/11/22 08:52:24;;;;;;;7.35;5.07;;;;;;;5.23;84.31;99003.84;4175421;28;20202;-91
2023/11/22 08:54:29;;;;;;;6.05;4.40;;;;;;;5.28;84.02;99014.03;4169019;28;20198;-89
2023/11/22 08:56:36;;;;;;;8.43;5.55;;;;;;;5.19;84.41;99012.59;4168024;28;20659;-89
2023/11/22 08:58:39;;;;;;;7.95;5.20;;;;;;;5.16;84.39;99004.09;4173234;28;20226;-89
2023/11/22 09:00:44;;;;;;;7.50;5.15;;;;;;;5.19;83.91;99009.16;4173256;28;20203;-88
2023/11/22 09:02:50;;;;;;;8.25;5.25;;;;;;;5.18;83.16;99008.28;4191202;28;20596;-89
2023/11/22 09:04:54;;;;;;;6.90;4.65;;;;;;;5.17;84.56;99004.03;4169130;28;20265;-90
2023/11/22 09:06:57;;;;;;;14.32;7.05;;;;;;;5.23;83.90;99001.25;4157524;28;20223;-89
2023/11/22 09:09:01;;;;;;;29.38;18.70;;;;;;;5.28;84.33;98998.53;4170217;28;20214;-89
2023/11/22 09:11:06;;;;;;;6.88;4.70;;;;;;;5.16;82.81;98999.75;4169780;28;20202;-89
2023/11/22 09:13:09;;;;;;;11.05;5.93;;;;;;;5.03;82.67;98992.44;4166263;28;20258;-88
2023/11/22 09:15:17;;;;;;;8.25;4.70;;;;;;;4.98;82.78;98989.16;4185300;28;20210;-88
2023/11/22 09:17:21;;;;;;;7.80;5.18;;;;;;;4.84;82.29;99000.81;4171662;28;20202;-89
2023/11/22 09:19:26;;;;;;;6.20;4.50;;;;;;;4.80;84.02;99000.09;4152645;28;20900;-90
2023/11/22 09:21:29;;;;;;;8.85;4.75;;;;;;;4.87;84.02;99005.91;4156680;28;20246;-92
2023/11/22 09:23:33;;;;;;;7.07;5.28;;;;;;;4.92;83.79;99009.19;4172214;28;20796;-92
2023/11/22 09:25:37;;;;;;;6.82;4.78;;;;;;;4.99;85.32;99003.78;4175807;28;20217;-93
2023/11/22 09:27:40;;;;;;;10.98;5.25;;;;;;;4.99;83.92;99008.97;4171272;28;20807;-90
2023/11/22 09:29:44;;;;;;;11.10;5.75;;;;;;;4.92;84.31;99015.19;4173742;28;20209;-89
2023/11/22 09:31:48;;;;;;;9.85;5.75;;;;;;;5.01;85.22;99017.50;4160827;28;20310;-92
2023/11/22 09:33:52;;;;;;;7.50;5.50;;;;;;;5.04;83.89;99014.00;4178557;28;20590;-92
2023/11/22 09:35:58;;;;;;;8.40;5.72;;;;;;;5.03;85.01;99015.69;4175630;28;20198;-91
2023/11/22 09:38:00;;;;;;;7.07;5.28;;;;;;;5.01;83.75;99019.25;4190095;28;20306;-90
2023/11/22 09:40:08;;;;;;;9.15;6.05;;;;;;;5.13;82.29;99015.38;4161063;28;20240;-91
2023/11/22 09:42:13;;;;;;;8.10;5.32;;;;;;;5.10;82.38;99013.75;4174457;28;20213;-91
2023/11/22 09:44:18;;;;;;;7.18;4.95;;;;;;;4.95;81.97;99015.13;4173780;28;20198;-91
2023/11/22 09:46:23;;;;;;;6.80;4.63;;;;;;;4.91;82.28;99025.59;4156684;28;20296;-91
2023/11/22 09:48:27;;;;;;;6.38;4.90;;;;;;;4.81;83.19;99024.16;4161981;28;20664;-91
2023/11/22 09:50:36;;;;;;;8.23;5.40;;;;;;;4.84;83.40;99032.69;4156828;28;20207;-90
2023/11/22 09:52:42;;;;;;;7.93;5.10;;;;;;;4.90;83.08;99041.97;4170586;28;20207;-91